sensor_id;sensor_type;location;lat;lon;timestamp;P1;durP1;ratioP1;P2;durP2;ratioP2
39750;SDS011;37579;51.074;17.004;2024-03-23T00:53:49;4.72;;;2.45;;
39750;SDS011;37579;51.074;17.004;2024-03-23T00:56:15;4.68;;;2.25;;
39750;SDS011;37579;51.074;17.004;2024-03-23T00:58:41;3.70;;;2.25;;
39750;SDS011;37579;51.074;17.004;2024-03-23T01:01:06;3.90;;;2.45;;
39750;SDS011;37579;51.074;17.004;2024-03-23T01:03:32;4.30;;;2.45;;
39750;SDS011;37579;51.074;17.004;2024-03-23T01:06:01;3.40;;;1.95;;
39750;SDS011;37579;51.074;17.004;2024-03-23T01:08:28;3.33;;;2.15;;
39750;SDS011;37579;51.074;17.004;2024-03-23T01:10:58;3.10;;;2.17;;
39750;SDS011;37579;51.074;17.004;2024-03-23T01:13:25;4.35;;;2.53;;
39750;SDS011;37579;51.074;17.004;2024-03-23T01:15:51;3.53;;;2.20;;
39750;SDS011;37579;51.074;17.004;2024-03-23T01:18:18;3.00;;;1.92;;
39750;SDS011;37579;51.074;17.004;2024-03-23T01:20:44;3.58;;;1.90;;
39750;SDS011;37579;51.074;17.004;2024-03-23T01:23:10;4.47;;;2.60;;
39750;SDS011;37579;51.074;17.004;2024-03-23T01:25:36;5.20;;;2.80;;
39750;SDS011;37579;51.074;17.004;2024-03-23T01:28:02;4.55;;;2.58;;
39750;SDS011;37579;51.074;17.004;2024-03-23T01:30:28;4.85;;;2.10;;
39750;SDS011;37579;51.074;17.004;2024-03-23T01:32:54;3.97;;;2.28;;
39750;SDS011;37579;51.074;17.004;2024-03-23T01:35:19;5.03;;;2.35;;
39750;SDS011;37579;51.074;17.004;2024-03-23T01:37:45;5.05;;;2.15;;
39750;SDS011;37579;51.074;17.004;2024-03-23T01:40:11;4.72;;;2.45;;
39750;SDS011;37579;51.074;17.004;2024-03-23T01:42:40;3.33;;;2.10;;
39750;SDS011;37579;51.074;17.004;2024-03-23T01:45:07;4.18;;;2.25;;
39750;SDS011;37579;51.074;17.004;2024-03-23T01:47:34;3.42;;;2.08;;
39750;SDS011;37579;51.074;17.004;2024-03-23T01:50:01;5.10;;;2.35;;
39750;SDS011;37579;51.074;17.004;2024-03-23T01:52:27;3.65;;;2.25;;
39750;SDS011;37579;51.074;17.004;2024-03-23T01:54:53;4.15;;;2.05;;
39750;SDS011;37579;51.074;17.004;2024-03-23T01:57:21;3.72;;;2.20;;
39750;SDS011;37579;51.074;17.004;2024-03-23T01:59:47;2.97;;;1.85;;
39750;SDS011;37579;51.074;17.004;2024-03-23T02:02:22;3.67;;;2.50;;
39750;SDS011;37579;51.074;17.004;2024-03-23T02:04:48;4.03;;;2.40;;
39750;SDS011;37579;51.074;17.004;2024-03-23T02:07:13;3.13;;;1.77;;
39750;SDS011;37579;51.074;17.004;2024-03-23T02:09:39;3.38;;;2.00;;
39750;SDS011;37579;51.074;17.004;2024-03-23T02:12:05;4.32;;;2.47;;
39750;SDS011;37579;51.074;17.004;2024-03-23T02:14:31;4.13;;;2.22;;
39750;SDS011;37579;51.074;17.004;2024-03-23T02:16:57;3.90;;;1.88;;
39750;SDS011;37579;51.074;17.004;2024-03-23T02:19:23;4.30;;;2.28;;
39750;SDS011;37579;51.074;17.004;2024-03-23T02:21:49;3.03;;;1.90;;
39750;SDS011;37579;51.074;17.004;2024-03-23T02:24:15;4.35;;;1.80;;
39750;SDS011;37579;51.074;17.004;2024-03-23T02:26:40;2.88;;;2.13;;
39750;SDS011;37579;51.074;17.004;2024-03-23T02:29:06;3.38;;;2.03;;
39750;SDS011;37579;51.074;17.004;2024-03-23T02:31:33;2.80;;;1.85;;
39750;SDS011;37579;51.074;17.004;2024-03-23T02:33:59;4.07;;;2.03;;
39750;SDS011;37579;51.074;17.004;2024-03-23T02:36:25;3.15;;;1.85;;
39750;SDS011;37579;51.074;17.004;2024-03-23T02:38:51;4.47;;;2.22;;
39750;SDS011;37579;51.074;17.004;2024-03-23T02:41:17;4.72;;;2.20;;
39750;SDS011;37579;51.074;17.004;2024-03-23T02:43:50;2.72;;;1.90;;
39750;SDS011;37579;51.074;17.004;2024-03-23T02:46:16;2.53;;;1.70;;
39750;SDS011;37579;51.074;17.004;2024-03-23T02:48:42;3.70;;;2.08;;
39750;SDS011;37579;51.074;17.004;2024-03-23T02:51:08;3.40;;;2.17;;
39750;SDS011;37579;51.074;17.004;2024-03-23T02:53:34;2.78;;;1.75;;
39750;SDS011;37579;51.074;17.004;2024-03-23T02:56:00;2.65;;;1.70;;
39750;SDS011;37579;51.074;17.004;2024-03-23T02:58:26;2.90;;;1.80;;
39750;SDS011;37579;51.074;17.004;2024-03-23T03:00:51;2.80;;;2.05;;
39750;SDS011;37579;51.074;17.004;2024-03-23T03:03:17;2.55;;;1.65;;
39750;SDS011;37579;51.074;17.004;2024-03-23T03:05:43;3.97;;;2.00;;
39750;SDS011;37579;51.074;17.004;2024-03-23T03:08:09;4.00;;;2.22;;
39750;SDS011;37579;51.074;17.004;2024-03-23T03:10:35;2.97;;;1.80;;
39750;SDS011;37579;51.074;17.004;2024-03-23T03:13:01;2.60;;;1.83;;
39750;SDS011;37579;51.074;17.004;2024-03-23T03:15:27;3.13;;;1.70;;
39750;SDS011;37579;51.074;17.004;2024-03-23T03:17:53;3.40;;;2.10;;
39750;SDS011;37579;51.074;17.004;2024-03-23T03:20:19;2.50;;;1.85;;
39750;SDS011;37579;51.074;17.004;2024-03-23T03:22:47;3.50;;;2.17;;
39750;SDS011;37579;51.074;17.004;2024-03-23T03:25:12;2.95;;;1.80;;
39750;SDS011;37579;51.074;17.004;2024-03-23T03:27:38;3.47;;;1.98;;
39750;SDS011;37579;51.074;17.004;2024-03-23T03:30:04;3.00;;;1.98;;
39750;SDS011;37579;51.074;17.004;2024-03-23T03:32:32;3.35;;;1.88;;
39750;SDS011;37579;51.074;17.004;2024-03-23T03:34:58;2.53;;;1.70;;
39750;SDS011;37579;51.074;17.004;2024-03-23T03:37:24;2.92;;;1.90;;
39750;SDS011;37579;51.074;17.004;2024-03-23T03:39:50;2.83;;;1.83;;
39750;SDS011;37579;51.074;17.004;2024-03-23T03:42:16;2.85;;;1.75;;
39750;SDS011;37579;51.074;17.004;2024-03-23T03:44:41;3.08;;;2.10;;
39750;SDS011;37579;51.074;17.004;2024-03-23T03:47:07;2.58;;;1.60;;
39750;SDS011;37579;51.074;17.004;2024-03-23T03:49:33;3.03;;;1.77;;
39750;SDS011;37579;51.074;17.004;2024-03-23T03:51:59;2.10;;;1.42;;
39750;SDS011;37579;51.074;17.004;2024-03-23T03:54:26;3.03;;;1.75;;
39750;SDS011;37579;51.074;17.004;2024-03-23T03:56:52;2.97;;;1.73;;
39750;SDS011;37579;51.074;17.004;2024-03-23T03:59:18;2.97;;;1.80;;
39750;SDS011;37579;51.074;17.004;2024-03-23T04:01:44;2.60;;;1.73;;
39750;SDS011;37579;51.074;17.004;2024-03-23T04:04:10;2.47;;;1.70;;
39750;SDS011;37579;51.074;17.004;2024-03-23T04:06:36;3.28;;;1.90;;
39750;SDS011;37579;51.074;17.004;2024-03-23T04:09:02;2.65;;;1.65;;
39750;SDS011;37579;51.074;17.004;2024-03-23T04:11:28;2.63;;;1.50;;
39750;SDS011;37579;51.074;17.004;2024-03-23T04:13:54;2.47;;;1.98;;
39750;SDS011;37579;51.074;17.004;2024-03-23T04:16:29;2.42;;;1.83;;
39750;SDS011;37579;51.074;17.004;2024-03-23T04:18:59;2.97;;;1.67;;
39750;SDS011;37579;51.074;17.004;2024-03-23T04:21:25;2.15;;;1.63;;
39750;SDS011;37579;51.074;17.004;2024-03-23T04:23:51;2.92;;;1.70;;
39750;SDS011;37579;51.074;17.004;2024-03-23T04:26:17;2.30;;;1.33;;
39750;SDS011;37579;51.074;17.004;2024-03-23T04:28:43;3.22;;;1.70;;
39750;SDS011;37579;51.074;17.004;2024-03-23T04:31:09;2.60;;;1.60;;
39750;SDS011;37579;51.074;17.004;2024-03-23T04:33:35;2.90;;;1.73;;
39750;SDS011;37579;51.074;17.004;2024-03-23T04:36:01;3.47;;;1.55;;
39750;SDS011;37579;51.074;17.004;2024-03-23T04:38:27;3.45;;;1.52;;
39750;SDS011;37579;51.074;17.004;2024-03-23T04:40:56;2.75;;;1.83;;
39750;SDS011;37579;51.074;17.004;2024-03-23T04:43:23;2.35;;;1.50;;
39750;SDS011;37579;51.074;17.004;2024-03-23T04:45:49;2.35;;;1.58;;
39750;SDS011;37579;51.074;17.004;2024-03-23T04:48:15;2.63;;;1.80;;
39750;SDS011;37579;51.074;17.004;2024-03-23T04:50:40;2.88;;;1.77;;
39750;SDS011;37579;51.074;17.004;2024-03-23T04:53:06;2.20;;;1.55;;
39750;SDS011;37579;51.074;17.004;2024-03-23T04:55:32;2.55;;;1.65;;
39750;SDS011;37579;51.074;17.004;2024-03-23T05:01:04;2.50;;;1.70;;
39750;SDS011;37579;51.074;17.004;2024-03-23T05:03:30;3.15;;;1.52;;
39750;SDS011;37579;51.074;17.004;2024-03-23T05:05:55;2.47;;;1.60;;
39750;SDS011;37579;51.074;17.004;2024-03-23T05:08:21;2.15;;;1.50;;
39750;SDS011;37579;51.074;17.004;2024-03-23T05:10:47;2.10;;;1.33;;
39750;SDS011;37579;51.074;17.004;2024-03-23T05:13:12;1.77;;;1.50;;
39750;SDS011;37579;51.074;17.004;2024-03-23T05:15:38;2.95;;;1.60;;
39750;SDS011;37579;51.074;17.004;2024-03-23T05:18:04;3.13;;;1.90;;
39750;SDS011;37579;51.074;17.004;2024-03-23T05:20:30;2.53;;;1.67;;
39750;SDS011;37579;51.074;17.004;2024-03-23T05:22:57;2.67;;;1.70;;
39750;SDS011;37579;51.074;17.004;2024-03-23T05:25:23;2.92;;;1.58;;
39750;SDS011;37579;51.074;17.004;2024-03-23T05:27:48;2.58;;;1.70;;
39750;SDS011;37579;51.074;17.004;2024-03-23T05:30:14;2.58;;;1.50;;
39750;SDS011;37579;51.074;17.004;2024-03-23T05:32:40;2.78;;;1.60;;
39750;SDS011;37579;51.074;17.004;2024-03-23T05:35:07;2.38;;;1.70;;
39750;SDS011;37579;51.074;17.004;2024-03-23T05:37:34;2.55;;;1.58;;
39750;SDS011;37579;51.074;17.004;2024-03-23T05:40:00;2.90;;;1.85;;
39750;SDS011;37579;51.074;17.004;2024-03-23T05:42:26;2.35;;;1.65;;
39750;SDS011;37579;51.074;17.004;2024-03-23T05:44:52;2.92;;;1.60;;
39750;SDS011;37579;51.074;17.004;2024-03-23T05:47:17;2.42;;;1.60;;
39750;SDS011;37579;51.074;17.004;2024-03-23T05:49:43;2.67;;;1.55;;
39750;SDS011;37579;51.074;17.004;2024-03-23T05:52:11;2.72;;;1.30;;
39750;SDS011;37579;51.074;17.004;2024-03-23T05:54:37;2.70;;;1.80;;
39750;SDS011;37579;51.074;17.004;2024-03-23T05:57:03;1.70;;;1.40;;
39750;SDS011;37579;51.074;17.004;2024-03-23T05:59:29;1.98;;;1.35;;
39750;SDS011;37579;51.074;17.004;2024-03-23T06:01:56;2.25;;;1.50;;
39750;SDS011;37579;51.074;17.004;2024-03-23T06:04:22;2.38;;;1.67;;
39750;SDS011;37579;51.074;17.004;2024-03-23T06:06:48;3.03;;;1.65;;
39750;SDS011;37579;51.074;17.004;2024-03-23T06:09:13;2.42;;;1.70;;
39750;SDS011;37579;51.074;17.004;2024-03-23T06:11:39;2.05;;;1.35;;
39750;SDS011;37579;51.074;17.004;2024-03-23T06:14:05;1.98;;;1.55;;
39750;SDS011;37579;51.074;17.004;2024-03-23T06:16:31;2.28;;;1.70;;
39750;SDS011;37579;51.074;17.004;2024-03-23T06:18:57;2.58;;;1.50;;
39750;SDS011;37579;51.074;17.004;2024-03-23T06:21:24;2.85;;;1.52;;
39750;SDS011;37579;51.074;17.004;2024-03-23T06:23:52;2.80;;;1.40;;
39750;SDS011;37579;51.074;17.004;2024-03-23T06:26:19;2.20;;;1.67;;
39750;SDS011;37579;51.074;17.004;2024-03-23T06:28:45;2.30;;;1.70;;
39750;SDS011;37579;51.074;17.004;2024-03-23T06:31:12;2.55;;;1.83;;
39750;SDS011;37579;51.074;17.004;2024-03-23T06:33:38;2.10;;;1.40;;
39750;SDS011;37579;51.074;17.004;2024-03-23T06:36:04;1.88;;;1.48;;
39750;SDS011;37579;51.074;17.004;2024-03-23T06:38:30;2.38;;;1.48;;
39750;SDS011;37579;51.074;17.004;2024-03-23T06:40:56;2.20;;;1.50;;
39750;SDS011;37579;51.074;17.004;2024-03-23T06:43:23;2.00;;;1.33;;
39750;SDS011;37579;51.074;17.004;2024-03-23T06:45:52;2.15;;;1.58;;
39750;SDS011;37579;51.074;17.004;2024-03-23T06:48:19;2.72;;;1.77;;
39750;SDS011;37579;51.074;17.004;2024-03-23T06:50:45;2.15;;;1.33;;
39750;SDS011;37579;51.074;17.004;2024-03-23T06:53:11;2.03;;;1.48;;
39750;SDS011;37579;51.074;17.004;2024-03-23T06:55:38;2.22;;;1.52;;
39750;SDS011;37579;51.074;17.004;2024-03-23T06:58:03;2.33;;;1.33;;
39750;SDS011;37579;51.074;17.004;2024-03-23T07:00:29;2.67;;;1.48;;
39750;SDS011;37579;51.074;17.004;2024-03-23T07:02:55;1.77;;;1.30;;
39750;SDS011;37579;51.074;17.004;2024-03-23T07:05:21;2.67;;;1.50;;
39750;SDS011;37579;51.074;17.004;2024-03-23T07:07:50;2.00;;;1.40;;
39750;SDS011;37579;51.074;17.004;2024-03-23T07:10:15;2.03;;;0.98;;
39750;SDS011;37579;51.074;17.004;2024-03-23T07:12:41;2.42;;;1.58;;
39750;SDS011;37579;51.074;17.004;2024-03-23T07:15:07;2.03;;;1.50;;
39750;SDS011;37579;51.074;17.004;2024-03-23T07:17:36;1.88;;;1.40;;
39750;SDS011;37579;51.074;17.004;2024-03-23T07:20:02;1.92;;;1.60;;
39750;SDS011;37579;51.074;17.004;2024-03-23T07:22:31;1.90;;;1.42;;
39750;SDS011;37579;51.074;17.004;2024-03-23T07:25:00;2.17;;;1.45;;
39750;SDS011;37579;51.074;17.004;2024-03-23T07:27:26;1.48;;;1.10;;
39750;SDS011;37579;51.074;17.004;2024-03-23T07:29:52;1.80;;;1.45;;
39750;SDS011;37579;51.074;17.004;2024-03-23T07:32:18;1.70;;;1.48;;
39750;SDS011;37579;51.074;17.004;2024-03-23T07:34:44;2.00;;;1.40;;
39750;SDS011;37579;51.074;17.004;2024-03-23T07:37:10;2.50;;;1.38;;
39750;SDS011;37579;51.074;17.004;2024-03-23T07:39:36;1.73;;;1.30;;
39750;SDS011;37579;51.074;17.004;2024-03-23T07:42:02;1.90;;;1.20;;
39750;SDS011;37579;51.074;17.004;2024-03-23T07:44:27;2.25;;;1.45;;
39750;SDS011;37579;51.074;17.004;2024-03-23T07:46:53;2.80;;;1.90;;
39750;SDS011;37579;51.074;17.004;2024-03-23T07:49:19;2.30;;;1.50;;
39750;SDS011;37579;51.074;17.004;2024-03-23T07:51:45;2.60;;;1.63;;
39750;SDS011;37579;51.074;17.004;2024-03-23T07:54:10;3.78;;;1.58;;
39750;SDS011;37579;51.074;17.004;2024-03-23T07:56:36;1.60;;;1.25;;
39750;SDS011;37579;51.074;17.004;2024-03-23T07:59:02;2.10;;;1.17;;
39750;SDS011;37579;51.074;17.004;2024-03-23T08:01:31;1.92;;;1.08;;
39750;SDS011;37579;51.074;17.004;2024-03-23T08:03:56;1.70;;;1.33;;
39750;SDS011;37579;51.074;17.004;2024-03-23T08:06:22;2.15;;;1.42;;
39750;SDS011;37579;51.074;17.004;2024-03-23T08:08:49;2.22;;;1.80;;
39750;SDS011;37579;51.074;17.004;2024-03-23T08:11:33;2.97;;;1.50;;
39750;SDS011;37579;51.074;17.004;2024-03-23T08:13:59;2.38;;;1.40;;
39750;SDS011;37579;51.074;17.004;2024-03-23T08:16:26;2.53;;;1.45;;
39750;SDS011;37579;51.074;17.004;2024-03-23T08:18:52;2.75;;;1.73;;
39750;SDS011;37579;51.074;17.004;2024-03-23T08:21:19;1.90;;;1.35;;
39750;SDS011;37579;51.074;17.004;2024-03-23T08:23:44;2.03;;;1.30;;
39750;SDS011;37579;51.074;17.004;2024-03-23T08:26:11;2.20;;;1.33;;
39750;SDS011;37579;51.074;17.004;2024-03-23T08:28:38;2.60;;;1.55;;
39750;SDS011;37579;51.074;17.004;2024-03-23T08:31:08;2.10;;;1.75;;
39750;SDS011;37579;51.074;17.004;2024-03-23T08:33:34;1.60;;;1.30;;
39750;SDS011;37579;51.074;17.004;2024-03-23T08:36:10;2.17;;;1.40;;
39750;SDS011;37579;51.074;17.004;2024-03-23T08:38:39;2.30;;;1.30;;
39750;SDS011;37579;51.074;17.004;2024-03-23T08:41:06;4.70;;;2.10;;
39750;SDS011;37579;51.074;17.004;2024-03-23T08:43:39;2.28;;;1.33;;
39750;SDS011;37579;51.074;17.004;2024-03-23T08:48:35;2.88;;;1.55;;
39750;SDS011;37579;51.074;17.004;2024-03-23T08:51:13;2.40;;;1.58;;
39750;SDS011;37579;51.074;17.004;2024-03-23T08:53:40;4.00;;;1.70;;
39750;SDS011;37579;51.074;17.004;2024-03-23T08:56:06;2.13;;;1.40;;
39750;SDS011;37579;51.074;17.004;2024-03-23T08:58:34;3.22;;;1.70;;
39750;SDS011;37579;51.074;17.004;2024-03-23T09:01:05;5.15;;;1.58;;
39750;SDS011;37579;51.074;17.004;2024-03-23T09:03:36;1.80;;;1.35;;
39750;SDS011;37579;51.074;17.004;2024-03-23T09:06:02;3.58;;;1.50;;
39750;SDS011;37579;51.074;17.004;2024-03-23T09:08:36;2.20;;;1.58;;
39750;SDS011;37579;51.074;17.004;2024-03-23T09:11:05;4.03;;;1.70;;
39750;SDS011;37579;51.074;17.004;2024-03-23T09:13:35;4.10;;;1.90;;
39750;SDS011;37579;51.074;17.004;2024-03-23T09:16:02;3.17;;;1.45;;
39750;SDS011;37579;51.074;17.004;2024-03-23T09:18:30;2.42;;;1.60;;
39750;SDS011;37579;51.074;17.004;2024-03-23T09:20:57;2.92;;;1.63;;
39750;SDS011;37579;51.074;17.004;2024-03-23T09:23:23;2.90;;;1.60;;
39750;SDS011;37579;51.074;17.004;2024-03-23T09:25:49;3.90;;;1.73;;
39750;SDS011;37579;51.074;17.004;2024-03-23T09:28:15;5.00;;;1.73;;
39750;SDS011;37579;51.074;17.004;2024-03-23T09:30:40;4.65;;;2.10;;
39750;SDS011;37579;51.074;17.004;2024-03-23T09:33:10;4.32;;;2.10;;
39750;SDS011;37579;51.074;17.004;2024-03-23T09:35:39;4.10;;;2.03;;
39750;SDS011;37579;51.074;17.004;2024-03-23T09:38:06;6.05;;;2.72;;
39750;SDS011;37579;51.074;17.004;2024-03-23T09:40:38;8.07;;;2.67;;
39750;SDS011;37579;51.074;17.004;2024-03-23T09:43:07;5.63;;;2.40;;
39750;SDS011;37579;51.074;17.004;2024-03-23T09:45:34;7.47;;;2.17;;
39750;SDS011;37579;51.074;17.004;2024-03-23T09:48:04;7.00;;;2.17;;
39750;SDS011;37579;51.074;17.004;2024-03-23T09:50:31;9.23;;;2.85;;
39750;SDS011;37579;51.074;17.004;2024-03-23T09:52:56;5.20;;;2.45;;
39750;SDS011;37579;51.074;17.004;2024-03-23T09:57:55;6.80;;;2.45;;
39750;SDS011;37579;51.074;17.004;2024-03-23T10:00:21;5.75;;;2.65;;
39750;SDS011;37579;51.074;17.004;2024-03-23T10:02:46;5.43;;;2.50;;
39750;SDS011;37579;51.074;17.004;2024-03-23T10:05:21;7.57;;;3.65;;
39750;SDS011;37579;51.074;17.004;2024-03-23T10:07:51;6.75;;;2.65;;
39750;SDS011;37579;51.074;17.004;2024-03-23T10:10:17;8.05;;;3.33;;
39750;SDS011;37579;51.074;17.004;2024-03-23T10:12:47;8.93;;;3.20;;
39750;SDS011;37579;51.074;17.004;2024-03-23T10:15:20;7.32;;;3.67;;
39750;SDS011;37579;51.074;17.004;2024-03-23T10:17:47;9.57;;;3.47;;
39750;SDS011;37579;51.074;17.004;2024-03-23T10:20:13;8.20;;;3.28;;
39750;SDS011;37579;51.074;17.004;2024-03-23T10:22:45;8.52;;;3.47;;
39750;SDS011;37579;51.074;17.004;2024-03-23T10:25:11;7.90;;;3.30;;
39750;SDS011;37579;51.074;17.004;2024-03-23T10:27:39;6.43;;;2.90;;
39750;SDS011;37579;51.074;17.004;2024-03-23T10:30:08;6.45;;;3.17;;
39750;SDS011;37579;51.074;17.004;2024-03-23T10:32:40;7.47;;;3.10;;
39750;SDS011;37579;51.074;17.004;2024-03-23T10:35:15;7.00;;;2.55;;
39750;SDS011;37579;51.074;17.004;2024-03-23T10:37:47;5.05;;;2.67;;
39750;SDS011;37579;51.074;17.004;2024-03-23T10:40:16;7.45;;;3.25;;
39750;SDS011;37579;51.074;17.004;2024-03-23T10:42:43;7.70;;;2.97;;
39750;SDS011;37579;51.074;17.004;2024-03-23T10:45:09;8.07;;;3.35;;
39750;SDS011;37579;51.074;17.004;2024-03-23T10:47:36;10.18;;;3.30;;
39750;SDS011;37579;51.074;17.004;2024-03-23T10:50:05;6.70;;;2.85;;
39750;SDS011;37579;51.074;17.004;2024-03-23T10:52:35;6.32;;;2.70;;
39750;SDS011;37579;51.074;17.004;2024-03-23T10:55:03;5.32;;;2.50;;
39750;SDS011;37579;51.074;17.004;2024-03-23T11:00:18;7.53;;;2.70;;
39750;SDS011;37579;51.074;17.004;2024-03-23T11:02:46;5.28;;;3.53;;
39750;SDS011;37579;51.074;17.004;2024-03-23T11:05:46;6.35;;;3.13;;
39750;SDS011;37579;51.074;17.004;2024-03-23T11:08:11;6.68;;;2.90;;
39750;SDS011;37579;51.074;17.004;2024-03-23T11:11:17;8.55;;;2.70;;
39750;SDS011;37579;51.074;17.004;2024-03-23T11:13:47;6.70;;;2.70;;
39750;SDS011;37579;51.074;17.004;2024-03-23T11:16:24;4.55;;;2.22;;
39750;SDS011;37579;51.074;17.004;2024-03-23T11:22:01;12.60;;;2.97;;
39750;SDS011;37579;51.074;17.004;2024-03-23T11:24:28;7.88;;;2.45;;
39750;SDS011;37579;51.074;17.004;2024-03-23T11:26:54;10.85;;;2.67;;
39750;SDS011;37579;51.074;17.004;2024-03-23T11:29:20;9.45;;;3.55;;
39750;SDS011;37579;51.074;17.004;2024-03-23T11:34:13;6.43;;;3.58;;
39750;SDS011;37579;51.074;17.004;2024-03-23T11:36:41;6.68;;;3.50;;
39750;SDS011;37579;51.074;17.004;2024-03-23T11:39:14;9.65;;;3.40;;
39750;SDS011;37579;51.074;17.004;2024-03-23T11:41:48;4.95;;;3.38;;
39750;SDS011;37579;51.074;17.004;2024-03-23T11:44:15;4.28;;;3.22;;
39750;SDS011;37579;51.074;17.004;2024-03-23T11:46:41;6.35;;;2.85;;
39750;SDS011;37579;51.074;17.004;2024-03-23T11:49:19;5.38;;;2.53;;
39750;SDS011;37579;51.074;17.004;2024-03-23T11:51:47;8.52;;;2.70;;
39750;SDS011;37579;51.074;17.004;2024-03-23T11:54:13;10.02;;;2.70;;
39750;SDS011;37579;51.074;17.004;2024-03-23T11:56:39;7.88;;;2.67;;
39750;SDS011;37579;51.074;17.004;2024-03-23T11:59:08;7.35;;;2.47;;
39750;SDS011;37579;51.074;17.004;2024-03-23T12:01:34;8.38;;;2.42;;
39750;SDS011;37579;51.074;17.004;2024-03-23T12:04:00;6.68;;;2.60;;
39750;SDS011;37579;51.074;17.004;2024-03-23T12:06:27;3.03;;;2.00;;
39750;SDS011;37579;51.074;17.004;2024-03-23T12:08:53;5.18;;;2.40;;
39750;SDS011;37579;51.074;17.004;2024-03-23T12:11:19;6.63;;;2.40;;
39750;SDS011;37579;51.074;17.004;2024-03-23T12:13:47;8.43;;;2.40;;
39750;SDS011;37579;51.074;17.004;2024-03-23T12:16:16;4.88;;;2.30;;
39750;SDS011;37579;51.074;17.004;2024-03-23T12:18:43;4.57;;;2.00;;
39750;SDS011;37579;51.074;17.004;2024-03-23T12:21:10;6.10;;;2.10;;
39750;SDS011;37579;51.074;17.004;2024-03-23T12:23:38;5.35;;;2.08;;
39750;SDS011;37579;51.074;17.004;2024-03-23T12:26:04;6.90;;;2.53;;
39750;SDS011;37579;51.074;17.004;2024-03-23T12:28:31;7.38;;;2.30;;
39750;SDS011;37579;51.074;17.004;2024-03-23T12:30:58;5.18;;;2.15;;
39750;SDS011;37579;51.074;17.004;2024-03-23T12:33:24;5.50;;;2.20;;
39750;SDS011;37579;51.074;17.004;2024-03-23T12:35:50;4.43;;;2.05;;
39750;SDS011;37579;51.074;17.004;2024-03-23T12:38:16;4.93;;;2.30;;
39750;SDS011;37579;51.074;17.004;2024-03-23T12:40:49;3.90;;;2.03;;
39750;SDS011;37579;51.074;17.004;2024-03-23T12:43:15;7.38;;;2.25;;
39750;SDS011;37579;51.074;17.004;2024-03-23T12:45:48;4.60;;;2.35;;
39750;SDS011;37579;51.074;17.004;2024-03-23T12:48:15;7.60;;;2.28;;
39750;SDS011;37579;51.074;17.004;2024-03-23T12:50:41;5.18;;;1.90;;
39750;SDS011;37579;51.074;17.004;2024-03-23T12:53:07;4.65;;;1.85;;
39750;SDS011;37579;51.074;17.004;2024-03-23T12:55:36;3.75;;;2.03;;
39750;SDS011;37579;51.074;17.004;2024-03-23T12:58:03;5.85;;;1.85;;
39750;SDS011;37579;51.074;17.004;2024-03-23T13:00:29;6.38;;;2.05;;
39750;SDS011;37579;51.074;17.004;2024-03-23T13:02:55;5.15;;;2.10;;
39750;SDS011;37579;51.074;17.004;2024-03-23T13:05:22;6.00;;;2.05;;
39750;SDS011;37579;51.074;17.004;2024-03-23T13:07:48;5.45;;;2.13;;
39750;SDS011;37579;51.074;17.004;2024-03-23T13:10:14;5.07;;;1.90;;
39750;SDS011;37579;51.074;17.004;2024-03-23T13:12:41;3.42;;;1.90;;
39750;SDS011;37579;51.074;17.004;2024-03-23T13:15:08;4.68;;;1.73;;
39750;SDS011;37579;51.074;17.004;2024-03-23T13:17:34;5.70;;;2.15;;
39750;SDS011;37579;51.074;17.004;2024-03-23T13:20:00;3.85;;;1.58;;
39750;SDS011;37579;51.074;17.004;2024-03-23T13:22:26;5.22;;;1.80;;
39750;SDS011;37579;51.074;17.004;2024-03-23T13:24:52;6.20;;;1.85;;
39750;SDS011;37579;51.074;17.004;2024-03-23T13:27:18;6.28;;;2.25;;
39750;SDS011;37579;51.074;17.004;2024-03-23T13:29:45;8.80;;;1.60;;
39750;SDS011;37579;51.074;17.004;2024-03-23T13:32:12;4.15;;;1.83;;
39750;SDS011;37579;51.074;17.004;2024-03-23T13:34:38;8.05;;;1.77;;
39750;SDS011;37579;51.074;17.004;2024-03-23T13:37:05;6.47;;;1.60;;
39750;SDS011;37579;51.074;17.004;2024-03-23T13:39:32;2.30;;;1.35;;
39750;SDS011;37579;51.074;17.004;2024-03-23T13:41:58;2.65;;;1.40;;
39750;SDS011;37579;51.074;17.004;2024-03-23T13:44:24;3.08;;;1.60;;
39750;SDS011;37579;51.074;17.004;2024-03-23T13:46:51;3.55;;;1.38;;
39750;SDS011;37579;51.074;17.004;2024-03-23T13:49:29;4.07;;;1.50;;
39750;SDS011;37579;51.074;17.004;2024-03-23T13:51:57;2.60;;;1.38;;
39750;SDS011;37579;51.074;17.004;2024-03-23T13:54:27;2.03;;;1.20;;
39750;SDS011;37579;51.074;17.004;2024-03-23T13:56:54;2.17;;;1.10;;
39750;SDS011;37579;51.074;17.004;2024-03-23T13:59:20;2.22;;;1.20;;
39750;SDS011;37579;51.074;17.004;2024-03-23T14:01:48;3.17;;;1.30;;
39750;SDS011;37579;51.074;17.004;2024-03-23T14:04:14;5.25;;;1.40;;
39750;SDS011;37579;51.074;17.004;2024-03-23T14:06:42;5.63;;;1.33;;
39750;SDS011;37579;51.074;17.004;2024-03-23T14:09:10;2.67;;;1.20;;
39750;SDS011;37579;51.074;17.004;2024-03-23T14:11:36;2.65;;;1.40;;
39750;SDS011;37579;51.074;17.004;2024-03-23T14:14:03;3.13;;;1.30;;
39750;SDS011;37579;51.074;17.004;2024-03-23T14:16:29;4.68;;;1.25;;
39750;SDS011;37579;51.074;17.004;2024-03-23T14:18:55;5.78;;;1.17;;
39750;SDS011;37579;51.074;17.004;2024-03-23T14:21:22;3.22;;;1.23;;
39750;SDS011;37579;51.074;17.004;2024-03-23T14:23:48;3.83;;;1.13;;
39750;SDS011;37579;51.074;17.004;2024-03-23T14:26:14;2.65;;;1.15;;
39750;SDS011;37579;51.074;17.004;2024-03-23T14:28:40;6.45;;;1.15;;
39750;SDS011;37579;51.074;17.004;2024-03-23T14:31:06;3.42;;;1.02;;
39750;SDS011;37579;51.074;17.004;2024-03-23T14:33:38;4.20;;;1.60;;
39750;SDS011;37579;51.074;17.004;2024-03-23T14:36:15;3.67;;;1.05;;
39750;SDS011;37579;51.074;17.004;2024-03-23T14:38:42;4.18;;;1.15;;
39750;SDS011;37579;51.074;17.004;2024-03-23T14:41:08;7.38;;;1.30;;
39750;SDS011;37579;51.074;17.004;2024-03-23T14:43:34;4.88;;;1.70;;
39750;SDS011;37579;51.074;17.004;2024-03-23T14:46:07;6.15;;;1.67;;
39750;SDS011;37579;51.074;17.004;2024-03-23T14:48:34;4.80;;;1.65;;
39750;SDS011;37579;51.074;17.004;2024-03-23T14:51:00;4.82;;;1.42;;
39750;SDS011;37579;51.074;17.004;2024-03-23T14:53:29;5.88;;;1.30;;
39750;SDS011;37579;51.074;17.004;2024-03-23T14:55:56;5.82;;;1.40;;
39750;SDS011;37579;51.074;17.004;2024-03-23T14:58:22;5.88;;;1.30;;
39750;SDS011;37579;51.074;17.004;2024-03-23T15:00:49;5.47;;;1.40;;
39750;SDS011;37579;51.074;17.004;2024-03-23T15:03:16;4.10;;;1.20;;
39750;SDS011;37579;51.074;17.004;2024-03-23T15:05:51;4.72;;;1.17;;
39750;SDS011;37579;51.074;17.004;2024-03-23T15:08:17;5.38;;;1.38;;
39750;SDS011;37579;51.074;17.004;2024-03-23T15:10:43;4.20;;;1.30;;
39750;SDS011;37579;51.074;17.004;2024-03-23T15:13:09;4.22;;;1.13;;
39750;SDS011;37579;51.074;17.004;2024-03-23T15:15:39;2.75;;;1.20;;
39750;SDS011;37579;51.074;17.004;2024-03-23T15:18:07;5.47;;;1.20;;
39750;SDS011;37579;51.074;17.004;2024-03-23T15:20:33;3.60;;;1.00;;
39750;SDS011;37579;51.074;17.004;2024-03-23T15:23:02;2.50;;;1.02;;
39750;SDS011;37579;51.074;17.004;2024-03-23T15:25:28;3.95;;;0.90;;
39750;SDS011;37579;51.074;17.004;2024-03-23T15:27:54;4.88;;;1.20;;
39750;SDS011;37579;51.074;17.004;2024-03-23T15:30:20;6.28;;;1.42;;
39750;SDS011;37579;51.074;17.004;2024-03-23T15:32:46;2.85;;;0.93;;
39750;SDS011;37579;51.074;17.004;2024-03-23T15:35:12;4.00;;;0.90;;
39750;SDS011;37579;51.074;17.004;2024-03-23T15:37:39;3.22;;;0.95;;
39750;SDS011;37579;51.074;17.004;2024-03-23T15:40:06;3.47;;;1.30;;
39750;SDS011;37579;51.074;17.004;2024-03-23T15:42:32;5.43;;;1.20;;